sensor_id;sensor_type;location;lat;lon;timestamp;pressure;altitude;pressure_sealevel;temperature;humidity
69306;BME280;56427;51.580;4.656;2022-07-17T16:09:56;102513.25;;;27.29;32.59
69306;BME280;56427;51.580;4.656;2022-07-17T16:12:22;102509.06;;;27.54;32.22
69306;BME280;56427;51.580;4.656;2022-07-17T16:14:47;102515.75;;;27.30;32.27
69306;BME280;56427;51.580;4.656;2022-07-17T16:17:14;102505.78;;;27.04;32.46
69306;BME280;56427;51.580;4.656;2022-07-17T16:19:40;102504.75;;;27.12;32.48
69306;BME280;56427;51.580;4.656;2022-07-17T16:22:05;102502.38;;;26.89;32.75
69306;BME280;56427;51.580;4.656;2022-07-17T16:24:31;102501.53;;;27.23;32.99
69306;BME280;56427;51.580;4.656;2022-07-17T16:26:56;102499.75;;;26.95;31.89
69306;BME280;56427;51.580;4.656;2022-07-17T16:29:21;102495.56;;;26.73;32.41
69306;BME280;56427;51.580;4.656;2022-07-17T16:31:47;102502.91;;;26.71;32.60
69306;BME280;56427;51.580;4.656;2022-07-17T16:34:12;102493.66;;;26.67;33.29
69306;BME280;56427;51.580;4.656;2022-07-17T16:36:37;102496.91;;;26.97;33.60
69306;BME280;56427;51.580;4.656;2022-07-17T16:39:03;102492.50;;;26.54;33.86
69306;BME280;56427;51.580;4.656;2022-07-17T16:41:29;102483.13;;;26.58;34.48
69306;BME280;56427;51.580;4.656;2022-07-17T16:43:54;102487.56;;;26.73;33.19
69306;BME280;56427;51.580;4.656;2022-07-17T16:46:19;102485.75;;;26.52;33.94
69306;BME280;56427;51.580;4.656;2022-07-17T16:48:45;102484.78;;;26.88;32.75
69306;BME280;56427;51.580;4.656;2022-07-17T16:51:10;102494.34;;;26.54;33.96
69306;BME280;56427;51.580;4.656;2022-07-17T16:53:35;102489.66;;;26.56;33.81
69306;BME280;56427;51.580;4.656;2022-07-17T16:56:01;102484.13;;;26.57;34.26
69306;BME280;56427;51.580;4.656;2022-07-17T16:58:26;102478.88;;;26.64;34.56
69306;BME280;56427;51.580;4.656;2022-07-17T17:00:52;102476.09;;;26.51;34.54
69306;BME280;56427;51.580;4.656;2022-07-17T17:03:17;102484.72;;;26.24;34.18
69306;BME280;56427;51.580;4.656;2022-07-17T17:05:43;102480.44;;;26.23;35.15
69306;BME280;56427;51.580;4.656;2022-07-17T17:08:08;102488.66;;;26.29;33.74
69306;BME280;56427;51.580;4.656;2022-07-17T17:10:33;102484.28;;;26.21;34.09
69306;BME280;56427;51.580;4.656;2022-07-17T17:12:59;102489.22;;;26.24;34.76
69306;BME280;56427;51.580;4.656;2022-07-17T17:15:24;102481.94;;;26.11;34.76
69306;BME280;56427;51.580;4.656;2022-07-17T17:17:49;102478.97;;;26.21;34.82
69306;BME280;56427;51.580;4.656;2022-07-17T17:20:15;102464.59;;;26.15;34.29
69306;BME280;56427;51.580;4.656;2022-07-17T17:22:40;102455.44;;;25.96;35.49
69306;BME280;56427;51.580;4.656;2022-07-17T17:25:07;102449.91;;;25.76;35.03
69306;BME280;56427;51.580;4.656;2022-07-17T17:27:33;102447.63;;;25.73;35.22
69306;BME280;56427;51.580;4.656;2022-07-17T17:29:59;102456.09;;;25.83;35.18
69306;BME280;56427;51.580;4.656;2022-07-17T17:32:24;102445.72;;;25.67;36.11
69306;BME280;56427;51.580;4.656;2022-07-17T17:34:50;102451.59;;;25.62;35.65
69306;BME280;56427;51.580;4.656;2022-07-17T17:37:15;102450.25;;;25.51;36.47
69306;BME280;56427;51.580;4.656;2022-07-17T17:39:40;102448.03;;;25.55;37.83
69306;BME280;56427;51.580;4.656;2022-07-17T17:42:06;102445.19;;;25.57;37.36
69306;BME280;56427;51.580;4.656;2022-07-17T17:44:31;102446.50;;;25.46;37.25
69306;BME280;56427;51.580;4.656;2022-07-17T17:46:56;102441.53;;;25.58;35.26
69306;BME280;56427;51.580;4.656;2022-07-17T17:49:23;102441.50;;;25.21;35.69
69306;BME280;56427;51.580;4.656;2022-07-17T17:51:49;102442.72;;;25.04;35.40
69306;BME280;56427;51.580;4.656;2022-07-17T17:54:14;102448.03;;;25.19;35.99
69306;BME280;56427;51.580;4.656;2022-07-17T17:56:40;102451.56;;;25.26;35.87
69306;BME280;56427;51.580;4.656;2022-07-17T17:59:05;102449.56;;;25.13;35.60
69306;BME280;56427;51.580;4.656;2022-07-17T18:01:30;102447.78;;;24.98;36.18
69306;BME280;56427;51.580;4.656;2022-07-17T18:03:56;102448.94;;;24.96;37.09
69306;BME280;56427;51.580;4.656;2022-07-17T18:06:21;102437.34;;;24.97;37.01
69306;BME280;56427;51.580;4.656;2022-07-17T18:08:46;102438.16;;;24.83;37.64
69306;BME280;56427;51.580;4.656;2022-07-17T18:11:12;102439.63;;;25.00;36.00
69306;BME280;56427;51.580;4.656;2022-07-17T18:13:37;102445.22;;;24.90;36.74
69306;BME280;56427;51.580;4.656;2022-07-17T18:16:02;102437.69;;;24.94;36.56
69306;BME280;56427;51.580;4.656;2022-07-17T18:18:28;102438.78;;;24.85;37.80
69306;BME280;56427;51.580;4.656;2022-07-17T18:20:53;102437.34;;;24.67;38.12
69306;BME280;56427;51.580;4.656;2022-07-17T18:23:18;102438.72;;;24.63;38.69
69306;BME280;56427;51.580;4.656;2022-07-17T18:25:44;102446.94;;;24.68;38.76
69306;BME280;56427;51.580;4.656;2022-07-17T18:28:09;102443.25;;;24.54;38.08
69306;BME280;56427;51.580;4.656;2022-07-17T18:30:36;102444.56;;;24.58;38.17
69306;BME280;56427;51.580;4.656;2022-07-17T18:33:01;102451.13;;;24.48;39.23
69306;BME280;56427;51.580;4.656;2022-07-17T18:35:27;102444.38;;;24.60;39.14
69306;BME280;56427;51.580;4.656;2022-07-17T18:37:52;102443.44;;;24.53;39.95
69306;BME280;56427;51.580;4.656;2022-07-17T18:40:18;102441.84;;;24.29;40.78
69306;BME280;56427;51.580;4.656;2022-07-17T18:42:44;102444.31;;;24.30;40.55
69306;BME280;56427;51.580;4.656;2022-07-17T18:45:09;102439.72;;;24.24;40.95
69306;BME280;56427;51.580;4.656;2022-07-17T18:47:35;102444.09;;;24.17;41.66
69306;BME280;56427;51.580;4.656;2022-07-17T18:50:01;102445.56;;;23.96;43.20
69306;BME280;56427;51.580;4.656;2022-07-17T18:52:26;102441.72;;;23.84;43.40
69306;BME280;56427;51.580;4.656;2022-07-17T18:54:56;102442.75;;;23.98;43.39
69306;BME280;56427;51.580;4.656;2022-07-17T18:57:22;102433.84;;;23.67;44.09
69306;BME280;56427;51.580;4.656;2022-07-17T18:59:48;102428.06;;;23.64;44.61
69306;BME280;56427;51.580;4.656;2022-07-17T19:02:13;102426.13;;;23.26;46.39
69306;BME280;56427;51.580;4.656;2022-07-17T19:04:39;102415.88;;;23.23;46.00
69306;BME280;56427;51.580;4.656;2022-07-17T19:07:04;102423.78;;;23.31;46.02
69306;BME280;56427;51.580;4.656;2022-07-17T19:09:30;102423.13;;;23.29;45.96
69306;BME280;56427;51.580;4.656;2022-07-17T19:11:55;102414.97;;;23.39;45.36
69306;BME280;56427;51.580;4.656;2022-07-17T19:14:20;102417.06;;;23.04;49.23
69306;BME280;56427;51.580;4.656;2022-07-17T19:16:48;102420.63;;;22.88;47.79
69306;BME280;56427;51.580;4.656;2022-07-17T19:19:13;102426.78;;;22.81;47.28
69306;BME280;56427;51.580;4.656;2022-07-17T19:21:38;102423.59;;;22.93;47.60
69306;BME280;56427;51.580;4.656;2022-07-17T19:24:04;102433.91;;;22.72;51.22
69306;BME280;56427;51.580;4.656;2022-07-17T19:26:30;102423.34;;;22.72;48.63
69306;BME280;56427;51.580;4.656;2022-07-17T19:28:55;102421.03;;;22.60;48.91
69306;BME280;56427;51.580;4.656;2022-07-17T19:31:21;102431.00;;;22.50;49.34
69306;BME280;56427;51.580;4.656;2022-07-17T19:33:46;102432.31;;;22.46;49.94
69306;BME280;56427;51.580;4.656;2022-07-17T19:36:12;102429.75;;;22.77;48.74
69306;BME280;56427;51.580;4.656;2022-07-17T19:38:37;102438.41;;;22.47;49.89
69306;BME280;56427;51.580;4.656;2022-07-17T19:41:02;102430.16;;;22.33;49.95
69306;BME280;56427;51.580;4.656;2022-07-17T19:43:28;102438.41;;;22.55;49.04
69306;BME280;56427;51.580;4.656;2022-07-17T19:45:53;102436.28;;;22.42;49.93
69306;BME280;56427;51.580;4.656;2022-07-17T19:48:18;102431.81;;;22.26;50.65
69306;BME280;56427;51.580;4.656;2022-07-17T19:50:44;102432.13;;;21.98;51.41
69306;BME280;56427;51.580;4.656;2022-07-17T19:53:09;102431.97;;;22.00;51.44
69306;BME280;56427;51.580;4.656;2022-07-17T19:55:35;102434.94;;;21.80;52.47
69306;BME280;56427;51.580;4.656;2022-07-17T19:58:20;102437.22;;;21.67;52.81
69306;BME280;56427;51.580;4.656;2022-07-17T20:00:45;102436.25;;;21.68;52.86
69306;BME280;56427;51.580;4.656;2022-07-17T20:03:11;102431.41;;;21.55;53.82
69306;BME280;56427;51.580;4.656;2022-07-17T20:05:36;102445.41;;;21.47;54.51
69306;BME280;56427;51.580;4.656;2022-07-17T20:08:01;102435.78;;;21.30;54.44
69306;BME280;56427;51.580;4.656;2022-07-17T20:10:27;102442.03;;;21.29;54.38
69306;BME280;56427;51.580;4.656;2022-07-17T20:12:52;102437.56;;;21.29;54.05
69306;BME280;56427;51.580;4.656;2022-07-17T20:15:18;102444.72;;;21.37;54.19
69306;BME280;56427;51.580;4.656;2022-07-17T20:17:43;102439.09;;;21.32;55.14
69306;BME280;56427;51.580;4.656;2022-07-17T20:20:09;102441.38;;;21.27;55.38
69306;BME280;56427;51.580;4.656;2022-07-17T20:22:35;102439.19;;;21.14;55.98
69306;BME280;56427;51.580;4.656;2022-07-17T20:25:00;102447.38;;;21.03;56.75
69306;BME280;56427;51.580;4.656;2022-07-17T20:27:25;102448.47;;;20.92;57.52
69306;BME280;56427;51.580;4.656;2022-07-17T20:29:51;102444.13;;;20.83;58.06
69306;BME280;56427;51.580;4.656;2022-07-17T20:32:16;102445.00;;;20.65;58.61
69306;BME280;56427;51.580;4.656;2022-07-17T20:34:42;102452.53;;;20.60;58.67
69306;BME280;56427;51.580;4.656;2022-07-17T20:37:07;102452.41;;;20.44;59.61
69306;BME280;56427;51.580;4.656;2022-07-17T20:39:32;102451.16;;;20.48;59.41
69306;BME280;56427;51.580;4.656;2022-07-17T20:41:59;102446.59;;;20.58;58.55
69306;BME280;56427;51.580;4.656;2022-07-17T20:44:24;102449.94;;;20.42;59.53
69306;BME280;56427;51.580;4.656;2022-07-17T20:46:49;102448.59;;;20.38;60.12
69306;BME280;56427;51.580;4.656;2022-07-17T20:49:15;102451.56;;;20.17;60.97
69306;BME280;56427;51.580;4.656;2022-07-17T20:51:40;102448.00;;;20.08;61.52
69306;BME280;56427;51.580;4.656;2022-07-17T20:54:06;102454.94;;;20.09;61.53
69306;BME280;56427;51.580;4.656;2022-07-17T20:56:31;102451.50;;;20.09;61.93
69306;BME280;56427;51.580;4.656;2022-07-17T20:58:56;102457.34;;;20.02;62.48
69306;BME280;56427;51.580;4.656;2022-07-17T21:01:22;102452.97;;;19.93;63.75
69306;BME280;56427;51.580;4.656;2022-07-17T21:03:47;102456.31;;;19.67;64.06
69306;BME280;56427;51.580;4.656;2022-07-17T21:06:12;102453.03;;;19.65;64.77
69306;BME280;56427;51.580;4.656;2022-07-17T21:08:38;102457.72;;;19.62;64.10
69306;BME280;56427;51.580;4.656;2022-07-17T21:11:04;102453.59;;;19.59;65.57
69306;BME280;56427;51.580;4.656;2022-07-17T21:13:30;102452.22;;;19.55;65.32
69306;BME280;56427;51.580;4.656;2022-07-17T21:15:55;102461.78;;;19.56;65.76
69306;BME280;56427;51.580;4.656;2022-07-17T21:18:25;102456.84;;;19.71;64.97
69306;BME280;56427;51.580;4.656;2022-07-17T21:20:51;102459.59;;;19.79;64.06
69306;BME280;56427;51.580;4.656;2022-07-17T21:23:16;102454.66;;;19.94;62.88
69306;BME280;56427;51.580;4.656;2022-07-17T21:25:42;102452.00;;;19.48;65.46
69306;BME280;56427;51.580;4.656;2022-07-17T21:28:08;102456.16;;;19.51;66.05
69306;BME280;56427;51.580;4.656;2022-07-17T21:30:33;102458.78;;;19.51;66.68
69306;BME280;56427;51.580;4.656;2022-07-17T21:32:59;102457.78;;;19.52;66.66
69306;BME280;56427;51.580;4.656;2022-07-17T21:35:25;102468.69;;;19.39;67.58
69306;BME280;56427;51.580;4.656;2022-07-17T21:37:51;102458.09;;;19.49;66.73
69306;BME280;56427;51.580;4.656;2022-07-17T21:40:17;102469.47;;;19.12;68.38
69306;BME280;56427;51.580;4.656;2022-07-17T21:42:42;102468.56;;;19.03;68.46
69306;BME280;56427;51.580;4.656;2022-07-17T21:45:07;102461.91;;;18.99;68.07
69306;BME280;56427;51.580;4.656;2022-07-17T21:47:33;102463.19;;;18.95;69.28
69306;BME280;56427;51.580;4.656;2022-07-17T21:49:58;102459.41;;;18.98;69.44
69306;BME280;56427;51.580;4.656;2022-07-17T21:52:24;102465.81;;;18.75;69.77
69306;BME280;56427;51.580;4.656;2022-07-17T21:54:49;102467.81;;;18.54;71.22
69306;BME280;56427;51.580;4.656;2022-07-17T21:57:14;102467.81;;;18.34;72.61
69306;BME280;56427;51.580;4.656;2022-07-17T21:59:40;102462.13;;;18.00;75.57
69306;BME280;56427;51.580;4.656;2022-07-17T22:02:06;102463.16;;;17.68;77.51
69306;BME280;56427;51.580;4.656;2022-07-17T22:04:31;102467.84;;;17.64;75.98
69306;BME280;56427;51.580;4.656;2022-07-17T22:06:57;102465.84;;;17.37;77.06
69306;BME280;56427;51.580;4.656;2022-07-17T22:09:22;102464.16;;;17.36;76.97
69306;BME280;56427;51.580;4.656;2022-07-17T22:11:48;102462.69;;;17.43;76.50
69306;BME280;56427;51.580;4.656;2022-07-17T22:14:13;102462.69;;;17.43;76.17
69306;BME280;56427;51.580;4.656;2022-07-17T22:16:39;102459.38;;;17.51;75.93
69306;BME280;56427;51.580;4.656;2022-07-17T22:19:05;102458.44;;;17.62;75.93
69306;BME280;56427;51.580;4.656;2022-07-17T22:21:30;102460.25;;;17.71;75.90
69306;BME280;56427;51.580;4.656;2022-07-17T22:23:56;102463.13;;;17.58;76.52
69306;BME280;56427;51.580;4.656;2022-07-17T22:26:22;102465.94;;;17.66;76.58
69306;BME280;56427;51.580;4.656;2022-07-17T22:28:48;102465.19;;;17.55;76.98
69306;BME280;56427;51.580;4.656;2022-07-17T22:31:13;102460.91;;;17.54;76.06
69306;BME280;56427;51.580;4.656;2022-07-17T22:33:38;102468.66;;;17.55;76.12
69306;BME280;56427;51.580;4.656;2022-07-17T22:36:04;102465.63;;;17.60;76.11
69306;BME280;56427;51.580;4.656;2022-07-17T22:38:29;102461.50;;;17.77;76.26
69306;BME280;56427;51.580;4.656;2022-07-17T22:40:55;102465.94;;;17.76;76.68
69306;BME280;56427;51.580;4.656;2022-07-17T22:43:20;102469.78;;;17.72;77.25
69306;BME280;56427;51.580;4.656;2022-07-17T22:45:46;102461.06;;;17.62;77.77
69306;BME280;56427;51.580;4.656;2022-07-17T22:48:11;102462.13;;;17.50;78.36
69306;BME280;56427;51.580;4.656;2022-07-17T22:50:37;102457.44;;;17.13;80.17
69306;BME280;56427;51.580;4.656;2022-07-17T22:53:02;102457.97;;;17.06;80.67
69306;BME280;56427;51.580;4.656;2022-07-17T22:55:28;102452.28;;;17.32;80.45
69306;BME280;56427;51.580;4.656;2022-07-17T22:57:53;102450.47;;;17.02;80.71
69306;BME280;56427;51.580;4.656;2022-07-17T23:00:19;102450.34;;;16.82;82.27
69306;BME280;56427;51.580;4.656;2022-07-17T23:02:46;102452.91;;;16.72;83.15
69306;BME280;56427;51.580;4.656;2022-07-17T23:05:12;102455.06;;;16.46;84.63
69306;BME280;56427;51.580;4.656;2022-07-17T23:07:37;102450.41;;;16.29;86.29
69306;BME280;56427;51.580;4.656;2022-07-17T23:10:03;102449.22;;;16.22;87.11
69306;BME280;56427;51.580;4.656;2022-07-17T23:12:29;102447.13;;;16.15;87.80
69306;BME280;56427;51.580;4.656;2022-07-17T23:14:55;102444.06;;;16.31;86.88
69306;BME280;56427;51.580;4.656;2022-07-17T23:17:20;102447.22;;;16.25;86.92
69306;BME280;56427;51.580;4.656;2022-07-17T23:19:45;102447.66;;;16.30;87.51
69306;BME280;56427;51.580;4.656;2022-07-17T23:22:10;102443.31;;;16.08;88.71
69306;BME280;56427;51.580;4.656;2022-07-17T23:24:37;102444.34;;;15.96;89.23
69306;BME280;56427;51.580;4.656;2022-07-17T23:27:02;102436.72;;;15.93;89.46
69306;BME280;56427;51.580;4.656;2022-07-17T23:29:28;102439.81;;;15.87;89.88
69306;BME280;56427;51.580;4.656;2022-07-17T23:31:53;102438.78;;;15.67;90.67
69306;BME280;56427;51.580;4.656;2022-07-17T23:34:18;102440.22;;;15.71;91.43
69306;BME280;56427;51.580;4.656;2022-07-17T23:36:43;102435.13;;;15.46;92.18
69306;BME280;56427;51.580;4.656;2022-07-17T23:39:09;102431.19;;;15.41;92.75
69306;BME280;56427;51.580;4.656;2022-07-17T23:41:34;102431.44;;;15.38;93.19
69306;BME280;56427;51.580;4.656;2022-07-17T23:44:00;102427.97;;;15.37;93.34
69306;BME280;56427;51.580;4.656;2022-07-17T23:46:25;102430.25;;;15.31;94.10
69306;BME280;56427;51.580;4.656;2022-07-17T23:48:50;102425.38;;;15.26;94.40
69306;BME280;56427;51.580;4.656;2022-07-17T23:51:16;102433.56;;;15.44;93.34
69306;BME280;56427;51.580;4.656;2022-07-17T23:53:43;102426.78;;;15.53;92.85
69306;BME280;56427;51.580;4.656;2022-07-17T23:56:09;102433.31;;;15.70;92.00
69306;BME280;56427;51.580;4.656;2022-07-17T23:58:34;102424.31;;;15.51;92.79
